Time;durP1;ratioP1;P1;durP2;ratioP2;P2;SDS_P1;SDS_P2;PMS_P1;PMS_P2;Temp;Humidity;BMP_temperature;BMP_pressure;BME280_temperature;BME280_humidity;BME280_pressure;Samples;Min_cycle;Max_cycle;Signal;HPM_P1;HPM_P2
2023/06/19 00:00:52;;;;;;;7.93;6.80;;;22.30;99.90;;;;;;5050371;28;20043;-69
2023/06/19 00:03:17;;;;;;;9.55;7.50;;;22.50;99.90;;;;;;5050056;28;20079;-69
2023/06/19 00:05:43;;;;;;;11.30;8.77;;;22.50;99.90;;;;;;5049894;28;20045;-69
2023/06/19 00:08:08;;;;;;;12.35;8.00;;;22.10;99.90;;;;;;5049393;28;20523;-69
2023/06/19 00:10:34;;;;;;;9.75;7.72;;;22.10;99.90;;;;;;5033206;28;20045;-69
2023/06/19 00:13:00;;;;;;;8.73;7.60;;;22.30;99.90;;;;;;5049864;28;20037;-69
2023/06/19 00:15:27;;;;;;;8.77;7.88;;;22.00;99.90;;;;;;5049780;28;20033;-69
2023/06/19 00:17:52;;;;;;;8.75;7.90;;;22.00;99.90;;;;;;5049533;28;20046;-69
2023/06/19 00:20:18;;;;;;;11.45;7.95;;;21.90;99.90;;;;;;5050789;28;20040;-69
2023/06/19 00:22:43;;;;;;;9.10;7.55;;;22.10;99.90;;;;;;5050078;28;20044;-69
2023/06/19 00:25:10;;;;;;;8.68;7.70;;;22.20;99.90;;;;;;5049809;28;20040;-69
2023/06/19 00:27:35;;;;;;;11.40;7.90;;;22.00;99.90;;;;;;5049331;28;20045;-69
2023/06/19 00:30:02;;;;;;;9.93;7.20;;;22.00;99.90;;;;;;5049563;28;20067;-69
2023/06/19 00:32:30;;;;;;;10.35;7.80;;;22.00;99.90;;;;;;5050053;28;20045;-69
2023/06/19 00:34:56;;;;;;;8.45;7.65;;;22.00;99.90;;;;;;5049958;28;20037;-69
2023/06/19 00:37:22;;;;;;;8.20;7.40;;;21.90;99.90;;;;;;5049162;28;20059;-70
2023/06/19 00:39:47;;;;;;;8.38;6.57;;;21.90;99.90;;;;;;5049829;28;20477;-69
2023/06/19 00:42:13;;;;;;;8.55;6.93;;;21.90;99.90;;;;;;5049734;28;20039;-71
2023/06/19 00:44:39;;;;;;;10.60;7.53;;;22.00;99.90;;;;;;5049774;28;20087;-69
2023/06/19 00:47:05;;;;;;;8.45;7.50;;;22.10;99.90;;;;;;5049650;28;20041;-69
2023/06/19 00:49:31;;;;;;;7.85;6.68;;;21.90;99.90;;;;;;5049472;28;20636;-69
2023/06/19 00:51:57;;;;;;;9.38;7.68;;;22.00;99.90;;;;;;5052627;28;20033;-69
2023/06/19 00:54:23;;;;;;;11.88;8.10;;;22.30;99.90;;;;;;5053297;28;20029;-70
2023/06/19 00:56:49;;;;;;;9.00;7.20;;;22.00;99.90;;;;;;5036028;28;20566;-69
2023/06/19 00:59:17;;;;;;;9.95;6.85;;;22.00;99.90;;;;;;5053035;28;20060;-69
2023/06/19 01:01:43;;;;;;;8.07;6.75;;;21.90;99.90;;;;;;5053132;28;20071;-69
2023/06/19 01:04:09;;;;;;;7.70;6.80;;;22.20;99.90;;;;;;5053038;28;20052;-67
2023/06/19 01:06:58;;;;;;;8.10;7.25;;;21.90;99.90;;;;;;5053601;28;20037;-70
2023/06/19 01:09:29;;;;;;;7.55;6.85;;;21.80;99.90;;;;;;5052837;28;20037;-70
2023/06/19 01:12:15;;;;;;;7.53;6.40;;;21.90;99.90;;;;;;5052971;28;20029;-70
2023/06/19 01:14:58;;;;;;;10.00;7.45;;;22.10;99.90;;;;;;5052865;28;20086;-70
2023/06/19 01:17:25;;;;;;;7.70;6.93;;;21.80;99.90;;;;;;5035928;28;20048;-69
2023/06/19 01:19:51;;;;;;;8.90;7.07;;;21.90;99.90;;;;;;5052353;28;20041;-70
2023/06/19 01:22:29;;;;;;;8.70;7.28;;;21.70;99.90;;;;;;5035998;28;20063;-69
2023/06/19 01:24:55;;;;;;;8.68;7.18;;;21.90;99.90;;;;;;5052691;28;20120;-69
2023/06/19 01:27:22;;;;;;;7.68;6.40;;;22.70;99.90;;;;;;5053248;28;20120;-69
2023/06/19 01:29:49;;;;;;;8.80;6.40;;;22.00;99.90;;;;;;5053802;28;20056;-70
2023/06/19 01:32:22;;;;;;;9.23;7.15;;;21.90;99.90;;;;;;5054003;28;20405;-70
2023/06/19 01:34:49;;;;;;;9.50;7.38;;;21.90;99.90;;;;;;5052748;28;20037;-69
2023/06/19 01:37:15;;;;;;;8.75;6.78;;;21.90;99.90;;;;;;5051972;28;20553;-69
2023/06/19 01:39:42;;;;;;;9.40;6.75;;;21.90;99.90;;;;;;5054130;28;20091;-70
2023/06/19 01:42:09;;;;;;;7.15;6.45;;;22.00;99.90;;;;;;5055532;28;20080;-69
2023/06/19 01:44:35;;;;;;;8.95;7.10;;;21.80;99.90;;;;;;5038722;28;20036;-70
2023/06/19 01:47:11;;;;;;;8.32;7.05;;;21.90;99.90;;;;;;5052312;28;20493;-69
2023/06/19 01:49:37;;;;;;;8.35;7.55;;;21.80;99.90;;;;;;5052341;28;20133;-69
2023/06/19 01:52:03;;;;;;;7.78;6.95;;;22.20;99.90;;;;;;5053464;28;20488;-70
2023/06/19 01:54:29;;;;;;;7.97;7.18;;;21.80;99.90;;;;;;5052011;28;20048;-69
2023/06/19 01:56:55;;;;;;;8.20;6.97;;;22.50;99.90;;;;;;5050753;28;20037;-70
2023/06/19 01:59:21;;;;;;;8.00;7.20;;;22.10;99.90;;;;;;5051522;28;20458;-71
2023/06/19 02:01:46;;;;;;;7.18;6.47;;;21.90;99.90;;;;;;5051967;28;20033;-69
2023/06/19 02:04:12;;;;;;;11.07;7.40;;;21.80;99.90;;;;;;5052218;28;20063;-69
2023/06/19 02:06:37;;;;;;;7.68;6.82;;;21.50;99.90;;;;;;5052662;28;20087;-69
2023/06/19 02:09:03;;;;;;;10.88;7.40;;;22.00;99.90;;;;;;5051664;28;20044;-70
2023/06/19 02:11:29;;;;;;;8.95;7.63;;;21.80;99.90;;;;;;5051633;28;20081;-69
2023/06/19 02:13:54;;;;;;;8.73;7.10;;;21.90;99.90;;;;;;5068283;28;20043;-69
2023/06/19 02:16:20;;;;;;;8.90;6.78;;;21.60;99.90;;;;;;5051036;28;20036;-69
2023/06/19 02:18:45;;;;;;;8.88;6.70;;;22.30;99.90;;;;;;5068211;28;20511;-70
2023/06/19 02:21:11;;;;;;;10.10;7.57;;;21.90;99.90;;;;;;5051934;28;20041;-69
2023/06/19 02:23:37;;;;;;;9.07;7.63;;;21.80;99.90;;;;;;5051368;28;20047;-69
2023/06/19 02:26:03;;;;;;;11.23;6.63;;;21.80;99.90;;;;;;5034386;28;20396;-70
2023/06/19 02:28:28;;;;;;;12.23;6.78;;;21.80;99.90;;;;;;5051487;28;20098;-70
2023/06/19 02:30:54;;;;;;;10.65;7.57;;;21.80;99.90;;;;;;5068061;28;20045;-69
2023/06/19 02:33:20;;;;;;;8.77;6.97;;;22.20;99.90;;;;;;5052677;28;20079;-69
2023/06/19 02:35:45;;;;;;;10.98;7.50;;;21.80;99.90;;;;;;5051534;28;20033;-69
2023/06/19 02:38:12;;;;;;;8.98;7.65;;;21.90;99.90;;;;;;5067539;28;20036;-69
2023/06/19 02:40:39;;;;;;;8.35;7.25;;;21.70;99.90;;;;;;5051372;28;20103;-69
2023/06/19 02:43:04;;;;;;;9.52;7.97;;;21.60;99.90;;;;;;5051212;28;20048;-69
2023/06/19 02:45:30;;;;;;;10.07;7.63;;;21.70;99.90;;;;;;5051112;28;20540;-69
2023/06/19 02:47:55;;;;;;;9.00;7.10;;;21.60;99.90;;;;;;5067304;28;20041;-69
2023/06/19 02:50:21;;;;;;;8.43;6.50;;;22.40;99.90;;;;;;5054228;28;20037;-69
2023/06/19 02:52:47;;;;;;;9.63;7.07;;;21.40;99.90;;;;;;5052286;28;20046;-69
2023/06/19 02:55:13;;;;;;;9.18;6.90;;;21.80;99.90;;;;;;5052612;28;20052;-68
2023/06/19 02:57:38;;;;;;;9.27;7.28;;;22.00;99.90;;;;;;5050389;28;20040;-68
2023/06/19 03:00:09;;;;;;;9.48;7.30;;;21.50;99.90;;;;;;5050726;28;20076;-69
2023/06/19 03:02:34;;;;;;;8.52;7.20;;;21.40;99.90;;;;;;5050864;28;20041;-69
2023/06/19 03:05:00;;;;;;;9.40;7.00;;;21.50;99.90;;;;;;5052047;28;20492;-69
2023/06/19 03:07:28;;;;;;;8.98;7.85;;;22.20;99.90;;;;;;5033453;28;20041;-69
2023/06/19 03:09:54;;;;;;;7.70;6.90;;;21.50;99.90;;;;;;5050469;28;20424;-70
2023/06/19 03:12:19;;;;;;;11.02;8.02;;;22.10;99.90;;;;;;5050655;28;20043;-70
2023/06/19 03:14:45;;;;;;;9.82;7.50;;;21.30;99.90;;;;;;5066949;28;20110;-69
2023/06/19 03:17:12;;;;;;;9.38;6.97;;;21.30;99.90;;;;;;5067198;28;20033;-70
2023/06/19 03:19:37;;;;;;;8.20;7.40;;;21.30;99.90;;;;;;5050340;28;20103;-70
2023/06/19 03:22:03;;;;;;;10.80;7.80;;;21.10;99.90;;;;;;5067357;28;20044;-69
2023/06/19 03:24:28;;;;;;;10.55;7.38;;;21.30;99.90;;;;;;5067384;28;20136;-71
2023/06/19 03:26:54;;;;;;;10.63;7.50;;;21.90;99.90;;;;;;5049949;28;20045;-69
2023/06/19 03:29:20;;;;;;;7.75;6.95;;;21.80;99.90;;;;;;5050314;28;20041;-70
2023/06/19 03:31:45;;;;;;;13.23;7.50;;;21.20;99.90;;;;;;5067006;28;20036;-71
2023/06/19 03:34:11;;;;;;;10.35;6.93;;;21.90;99.90;;;;;;5050642;28;20082;-70
2023/06/19 03:36:38;;;;;;;8.85;6.30;;;21.20;99.90;;;;;;5066366;28;20040;-70
2023/06/19 03:39:04;;;;;;;8.35;5.70;;;21.10;99.90;;;;;;5051586;28;20177;-70
2023/06/19 03:41:29;;;;;;;7.32;5.18;;;21.10;99.90;;;;;;5051610;28;20051;-71
2023/06/19 03:43:55;;;;;;;6.22;4.55;;;22.00;99.90;;;;;;5050605;28;20043;-70
2023/06/19 03:46:21;;;;;;;5.43;4.38;;;21.30;99.90;;;;;;5049664;28;20033;-69
2023/06/19 03:48:46;;;;;;;4.45;4.03;;;21.10;99.90;;;;;;5049935;28;20119;-69
2023/06/19 03:51:12;;;;;;;6.05;4.05;;;21.10;99.90;;;;;;5049524;28;20091;-71
2023/06/19 03:53:37;;;;;;;4.38;3.55;;;21.10;99.90;;;;;;5050087;28;20507;-69
2023/06/19 03:56:03;;;;;;;4.90;3.47;;;21.50;99.90;;;;;;5066092;28;20047;-69
2023/06/19 03:58:29;;;;;;;6.03;3.78;;;21.10;99.90;;;;;;5033545;28;20041;-69
2023/06/19 04:00:54;;;;;;;4.45;3.15;;;21.10;99.90;;;;;;5050108;28;20052;-71
2023/06/19 04:03:20;;;;;;;6.93;3.20;;;21.00;99.90;;;;;;5050046;28;20579;-70
2023/06/19 04:05:45;;;;;;;6.47;3.55;;;20.90;99.90;;;;;;5051080;28;20479;-70
2023/06/19 04:08:11;;;;;;;4.55;3.13;;;20.80;99.90;;;;;;5066239;28;20037;-70
2023/06/19 04:10:37;;;;;;;4.15;3.17;;;21.00;99.90;;;;;;5066628;28;20385;-69
2023/06/19 04:13:05;;;;;;;4.40;3.05;;;21.10;99.90;;;;;;5049944;28;20048;-69
2023/06/19 04:15:32;;;;;;;5.82;2.80;;;21.10;99.90;;;;;;5051006;28;20045;-68
2023/06/19 04:17:57;;;;;;;3.55;3.20;;;21.10;99.90;;;;;;5050917;28;20037;-71
2023/06/19 04:20:23;;;;;;;3.38;2.92;;;20.90;99.90;;;;;;5049591;28;20496;-70
2023/06/19 04:22:48;;;;;;;3.33;2.63;;;20.70;99.90;;;;;;5049921;28;20436;-69
2023/06/19 04:25:14;;;;;;;5.28;3.25;;;20.90;99.90;;;;;;5050513;28;20084;-70
2023/06/19 04:27:40;;;;;;;3.90;3.10;;;21.00;99.90;;;;;;5036643;28;20040;-71
2023/06/19 04:30:06;;;;;;;4.88;3.10;;;21.00;99.90;;;;;;5053320;28;20037;-69
2023/06/19 04:32:32;;;;;;;5.57;3.50;;;20.80;99.90;;;;;;5055059;28;20040;-70
2023/06/19 04:34:58;;;;;;;7.38;2.92;;;21.30;99.90;;;;;;5053596;28;20130;-70
2023/06/19 04:37:24;;;;;;;3.65;3.33;;;20.80;99.90;;;;;;5053083;28;20048;-70
2023/06/19 04:39:50;;;;;;;4.93;3.17;;;21.20;99.90;;;;;;5053385;28;20037;-69
2023/06/19 04:42:20;;;;;;;4.18;3.03;;;21.40;99.90;;;;;;5053531;28;20127;-69
2023/06/19 04:44:47;;;;;;;3.22;2.92;;;20.70;99.90;;;;;;5053465;28;20041;-69
2023/06/19 04:47:13;;;;;;;5.25;2.97;;;20.90;99.90;;;;;;5053035;28;20139;-69
2023/06/19 04:49:38;;;;;;;3.88;3.05;;;21.10;99.90;;;;;;5053076;28;20045;-69
2023/06/19 04:52:04;;;;;;;3.97;3.22;;;21.20;99.90;;;;;;5053346;28;20041;-69
2023/06/19 04:54:32;;;;;;;4.32;3.35;;;21.10;99.90;;;;;;5036889;28;20044;-69
2023/06/19 04:56:58;;;;;;;3.85;3.15;;;21.40;99.90;;;;;;5052609;28;20041;-69
2023/06/19 04:59:24;;;;;;;5.18;3.33;;;21.30;99.90;;;;;;5052966;28;20033;-69
2023/06/19 05:01:49;;;;;;;5.32;3.97;;;21.30;99.90;;;;;;5036500;28;20504;-70
2023/06/19 05:04:15;;;;;;;5.78;3.97;;;21.90;99.90;;;;;;5050754;28;20068;-68
2023/06/19 05:06:40;;;;;;;5.47;3.60;;;22.00;99.90;;;;;;5042737;28;20101;-68
2023/06/19 05:09:06;;;;;;;5.90;3.90;;;21.30;99.90;;;;;;5041472;28;20067;-69
2023/06/19 05:11:32;;;;;;;6.28;4.28;;;22.00;99.90;;;;;;5043403;28;20086;-69
2023/06/19 05:13:58;;;;;;;3.92;3.53;;;21.40;99.90;;;;;;5043713;28;20025;-69
2023/06/19 05:16:24;;;;;;;9.85;4.68;;;21.40;99.90;;;;;;5041044;28;20048;-69
2023/06/19 05:18:51;;;;;;;6.50;4.22;;;21.40;99.90;;;;;;5043330;28;20206;-68
2023/06/19 05:21:17;;;;;;;6.43;4.68;;;21.40;99.90;;;;;;5042181;28;20065;-70
2023/06/19 05:23:42;;;;;;;5.07;3.92;;;21.40;99.90;;;;;;5041856;28;20492;-70
2023/06/19 05:26:08;;;;;;;5.70;4.00;;;21.50;99.90;;;;;;5042705;28;20646;-69
2023/06/19 05:28:34;;;;;;;6.03;5.15;;;21.10;99.90;;;;;;5042650;28;20551;-69
2023/06/19 05:30:59;;;;;;;8.25;4.93;;;21.20;99.90;;;;;;5035305;28;20049;-69
2023/06/19 05:33:25;;;;;;;5.75;4.90;;;21.10;99.90;;;;;;5051751;28;20131;-70
2023/06/19 05:35:52;;;;;;;7.38;5.03;;;21.80;99.90;;;;;;5037964;28;20033;-69
2023/06/19 05:38:21;;;;;;;5.78;5.20;;;19.90;99.90;;;;;;5051826;28;20036;-70
2023/06/19 05:40:46;;;;;;;8.57;6.10;;;21.90;99.90;;;;;;5052141;28;20466;-69
2023/06/19 05:43:12;;;;;;;7.55;6.43;;;21.10;99.90;;;;;;5051780;28;20119;-69
2023/06/19 05:45:38;;;;;;;8.35;6.82;;;21.00;99.90;;;;;;5050913;28;20041;-69
2023/06/19 05:48:04;;;;;;;10.80;7.78;;;21.50;99.90;;;;;;5051356;28;20119;-69
2023/06/19 05:50:30;;;;;;;13.73;9.70;;;21.20;99.90;;;;;;5051672;28;20041;-69
2023/06/19 05:52:56;;;;;;;11.00;8.27;;;21.30;99.90;;;;;;5052185;28;20045;-71
2023/06/19 05:55:21;;;;;;;11.10;9.35;;;21.20;99.90;;;;;;5051838;28;20546;-69
2023/06/19 05:57:47;;;;;;;16.45;10.75;;;21.30;99.90;;;;;;5049997;28;20041;-68
2023/06/19 06:00:14;;;;;;;15.63;11.57;;;21.40;99.90;;;;;;5034961;28;20480;-69
2023/06/19 06:02:40;;;;;;;16.27;12.75;;;21.30;99.90;;;;;;5052165;28;20044;-69
2023/06/19 06:05:08;;;;;;;21.23;13.57;;;21.30;99.90;;;;;;5050566;28;20595;-69
2023/06/19 06:07:34;;;;;;;19.38;13.88;;;21.30;99.90;;;;;;5034774;28;20128;-69
2023/06/19 06:10:00;;;;;;;17.73;12.13;;;22.30;99.90;;;;;;5051467;28;20124;-70
2023/06/19 06:12:25;;;;;;;17.30;14.70;;;21.80;99.90;;;;;;5051402;28;20095;-69
2023/06/19 06:14:51;;;;;;;16.90;14.52;;;21.70;99.90;;;;;;5052600;28;20033;-69
2023/06/19 06:17:16;;;;;;;16.73;14.73;;;21.60;99.90;;;;;;5050686;28;20044;-68
2023/06/19 06:19:42;;;;;;;15.13;13.52;;;21.30;99.90;;;;;;5051073;28;20041;-69
2023/06/19 06:22:08;;;;;;;17.65;15.00;;;21.40;99.90;;;;;;5051305;28;20123;-69
2023/06/19 06:24:33;;;;;;;21.38;15.85;;;21.10;99.90;;;;;;5052635;28;20033;-69
2023/06/19 06:26:59;;;;;;;22.15;16.90;;;21.40;99.90;;;;;;5050913;28;20037;-70
2023/06/19 06:29:25;;;;;;;20.40;17.17;;;21.50;99.90;;;;;;5045608;28;20068;-69
2023/06/19 06:31:53;;;;;;;24.42;17.45;;;21.10;99.90;;;;;;5030876;28;20037;-69
2023/06/19 06:34:19;;;;;;;25.13;18.20;;;21.00;99.90;;;;;;5048370;28;20119;-69
2023/06/19 06:36:45;;;;;;;29.45;20.63;;;21.60;99.90;;;;;;5048260;28;20691;-69
2023/06/19 06:39:11;;;;;;;30.13;19.23;;;20.80;99.90;;;;;;5048624;28;20044;-69
2023/06/19 06:41:36;;;;;;;29.55;21.73;;;20.80;99.90;;;;;;5048646;28;20036;-69
2023/06/19 06:44:04;;;;;;;34.13;23.33;;;20.70;99.90;;;;;;5037040;28;20143;-69
2023/06/19 06:46:29;;;;;;;36.10;23.92;;;20.50;99.90;;;;;;5029816;28;20059;-69
2023/06/19 06:48:55;;;;;;;34.08;22.77;;;20.50;99.90;;;;;;5046343;28;20608;-70
2023/06/19 06:51:22;;;;;;;35.35;23.98;;;20.60;99.90;;;;;;5047001;28;20094;-71
2023/06/19 06:53:47;;;;;;;34.63;24.52;;;20.70;99.90;;;;;;5046932;28;20043;-69
2023/06/19 06:56:13;;;;;;;36.47;23.88;;;20.60;99.90;;;;;;5045999;28;20452;-70
2023/06/19 06:58:39;;;;;;;35.45;24.52;;;20.30;99.90;;;;;;5030039;28;20037;-70
2023/06/19 07:01:04;;;;;;;37.45;23.98;;;20.40;99.90;;;;;;5053163;28;20128;-69
2023/06/19 07:03:31;;;;;;;33.15;21.13;;;21.10;99.90;;;;;;5047034;28;20527;-67
2023/06/19 07:05:57;;;;;;;32.63;22.63;;;20.50;99.90;;;;;;5054932;28;20641;-72
2023/06/19 07:08:23;;;;;;;30.65;21.75;;;21.10;99.90;;;;;;5028128;28;20036;-66
2023/06/19 07:10:48;;;;;;;30.65;20.35;;;20.60;99.90;;;;;;5047312;28;20110;-68
2023/06/19 07:13:14;;;;;;;32.28;20.98;;;20.80;99.90;;;;;;5046361;28;20140;-70
2023/06/19 07:15:40;;;;;;;30.98;18.88;;;21.00;99.90;;;;;;5047070;28;20049;-70
2023/06/19 07:18:05;;;;;;;29.15;19.63;;;20.30;99.90;;;;;;5047094;28;20140;-69
2023/06/19 07:20:31;;;;;;;34.63;21.13;;;20.40;99.90;;;;;;5030699;28;20424;-69
2023/06/19 07:22:57;;;;;;;33.85;21.45;;;20.70;99.90;;;;;;5021686;28;20045;-67
2023/06/19 07:25:25;;;;;;;32.90;21.15;;;20.50;99.90;;;;;;5042562;28;20037;-69
2023/06/19 07:27:50;;;;;;;32.33;21.08;;;20.50;99.90;;;;;;5015556;28;20805;-69
2023/06/19 07:30:16;;;;;;;32.33;19.90;;;20.80;99.90;;;;;;5040053;28;20056;-70
2023/06/19 07:32:42;;;;;;;29.30;20.23;;;20.30;99.90;;;;;;5034497;28;20519;-70
2023/06/19 07:35:08;;;;;;;35.47;20.30;;;20.70;99.90;;;;;;5042737;28;20044;-70
2023/06/19 07:37:33;;;;;;;32.92;20.63;;;20.50;99.90;;;;;;5050397;28;20080;-69
2023/06/19 07:39:59;;;;;;;22.40;15.40;;;20.80;99.90;;;;;;5048209;28;20033;-69
2023/06/19 07:42:26;;;;;;;22.38;16.15;;;20.60;99.90;;;;;;5032436;28;20144;-69
2023/06/19 07:44:52;;;;;;;20.38;14.43;;;21.10;99.90;;;;;;5049628;28;20088;-70
2023/06/19 07:47:18;;;;;;;31.35;15.55;;;22.10;99.90;;;;;;5034394;28;20037;-69
2023/06/19 07:49:45;;;;;;;20.02;13.75;;;20.60;99.90;;;;;;5050537;28;20036;-69
2023/06/19 07:52:10;;;;;;;20.70;14.35;;;21.00;99.90;;;;;;5042499;28;20489;-70
2023/06/19 07:54:36;;;;;;;22.80;14.15;;;20.60;99.90;;;;;;5047541;28;20036;-69
2023/06/19 07:57:02;;;;;;;20.20;15.02;;;20.70;99.90;;;;;;5047915;28;20501;-69
2023/06/19 07:59:27;;;;;;;22.15;15.77;;;20.60;99.90;;;;;;5048475;28;20179;-69
2023/06/19 08:01:53;;;;;;;23.58;15.77;;;20.70;99.90;;;;;;5053529;28;20033;-69
2023/06/19 08:04:18;;;;;;;22.55;15.75;;;20.50;99.90;;;;;;5052797;28;20043;-69
2023/06/19 08:06:44;;;;;;;24.85;15.32;;;20.40;99.90;;;;;;5052351;28;20040;-69
2023/06/19 08:09:10;;;;;;;23.27;16.13;;;20.40;99.90;;;;;;5054460;28;20039;-69
2023/06/19 08:11:37;;;;;;;23.92;15.25;;;20.80;99.90;;;;;;5052714;28;20037;-70
2023/06/19 08:14:02;;;;;;;18.13;14.05;;;20.60;99.90;;;;;;5062886;28;20064;-69
2023/06/19 08:16:28;;;;;;;17.85;14.32;;;20.40;99.90;;;;;;5061804;28;20118;-68
2023/06/19 08:18:53;;;;;;;18.02;14.02;;;20.70;99.90;;;;;;5057791;28;20040;-70
2023/06/19 08:21:21;;;;;;;19.08;13.55;;;20.60;99.90;;;;;;5026868;28;20491;-70
2023/06/19 08:23:47;;;;;;;16.95;12.82;;;20.70;99.90;;;;;;5047794;28;20047;-70
2023/06/19 08:26:12;;;;;;;15.55;12.20;;;20.80;99.90;;;;;;5034968;28;20368;-70
2023/06/19 08:28:40;;;;;;;16.08;11.30;;;20.90;99.90;;;;;;5051914;28;20044;-71
2023/06/19 08:31:05;;;;;;;15.07;11.35;;;20.90;99.90;;;;;;5045226;28;20085;-70
2023/06/19 08:33:31;;;;;;;13.38;10.82;;;20.70;99.90;;;;;;5031790;28;20076;-71
2023/06/19 08:35:56;;;;;;;13.40;10.88;;;20.80;99.90;;;;;;5031451;28;20033;-69
2023/06/19 08:38:22;;;;;;;14.77;10.52;;;20.60;99.90;;;;;;5031411;28;20409;-69
2023/06/19 08:40:48;;;;;;;14.02;10.75;;;20.90;99.90;;;;;;5032118;28;20041;-69
2023/06/19 08:43:14;;;;;;;13.35;10.68;;;20.50;99.90;;;;;;5039874;28;20593;-73
2023/06/19 08:45:40;;;;;;;12.30;9.98;;;20.30;99.90;;;;;;5051650;28;20057;-69
2023/06/19 08:48:08;;;;;;;11.88;9.55;;;20.20;99.90;;;;;;5035161;28;20045;-71
2023/06/19 08:50:34;;;;;;;13.57;9.73;;;20.50;99.90;;;;;;5041023;28;20041;-69
2023/06/19 08:52:59;;;;;;;13.80;9.27;;;20.30;99.90;;;;;;5051736;28;20055;-68
2023/06/19 08:55:25;;;;;;;17.08;9.73;;;21.20;99.90;;;;;;5046849;28;20102;-69
2023/06/19 08:57:52;;;;;;;12.85;9.23;;;20.20;99.90;;;;;;5050348;28;20493;-70
2023/06/19 09:00:25;;;;;;;18.48;10.48;;;20.30;99.90;;;;;;5051569;28;20072;-69
2023/06/19 09:02:57;;;;;;;16.52;10.80;;;20.50;99.90;;;;;;5045527;28;20045;-69
2023/06/19 09:05:23;;;;;;;12.73;10.98;;;20.40;99.90;;;;;;5032566;28;20090;-70
2023/06/19 09:08:02;;;;;;;16.83;9.93;;;20.50;99.90;;;;;;5030641;28;20687;-70
2023/06/19 09:10:28;;;;;;;14.43;10.50;;;20.60;99.90;;;;;;5030855;28;20038;-69
2023/06/19 09:12:58;;;;;;;14.80;11.63;;;20.60;99.90;;;;;;5042288;28;20051;-70
2023/06/19 09:15:26;;;;;;;16.13;11.65;;;20.30;99.90;;;;;;5035027;28;20547;-70
2023/06/19 09:18:07;;;;;;;17.08;10.48;;;20.40;99.90;;;;;;5051433;28;20041;-70
2023/06/19 09:20:36;;;;;;;14.35;11.05;;;20.20;99.90;;;;;;5052905;28;20117;-69
2023/06/19 09:23:01;;;;;;;17.15;12.82;;;20.50;99.90;;;;;;5051678;28;20129;-70
2023/06/19 09:25:27;;;;;;;18.15;13.50;;;20.20;99.90;;;;;;5052720;28;20497;-69
2023/06/19 09:27:54;;;;;;;15.85;11.07;;;20.60;99.90;;;;;;5035661;28;20404;-69
2023/06/19 09:30:20;;;;;;;16.13;12.02;;;20.20;99.90;;;;;;5053691;28;20155;-69
2023/06/19 09:32:45;;;;;;;18.25;12.00;;;20.40;99.90;;;;;;5052784;28;20538;-69
2023/06/19 09:35:11;;;;;;;15.57;12.35;;;20.50;99.90;;;;;;5054263;28;20036;-69
2023/06/19 09:37:38;;;;;;;19.63;12.20;;;20.50;99.90;;;;;;5053947;28;20043;-70
2023/06/19 09:40:10;;;;;;;19.08;11.82;;;20.50;99.90;;;;;;5054167;28;20047;-70
2023/06/19 09:42:43;;;;;;;21.80;12.90;;;20.50;99.90;;;;;;5054257;28;20068;-69
2023/06/19 09:45:11;;;;;;;17.52;12.40;;;20.50;99.90;;;;;;5054013;28;20128;-69
2023/06/19 09:47:39;;;;;;;16.25;12.98;;;20.60;99.90;;;;;;5031434;28;20037;-69
2023/06/19 09:50:06;;;;;;;16.15;11.82;;;21.10;99.90;;;;;;5052127;28;20033;-69
2023/06/19 09:52:32;;;;;;;17.45;13.07;;;20.70;99.90;;;;;;5052871;28;20040;-70
2023/06/19 09:55:02;;;;;;;19.98;13.25;;;20.80;99.90;;;;;;5052124;28;20039;-70
2023/06/19 09:57:29;;;;;;;17.52;13.15;;;21.10;99.90;;;;;;5053602;28;20501;-70
2023/06/19 09:59:59;;;;;;;14.05;11.45;;;20.90;99.90;;;;;;5053524;28;20087;-69
2023/06/19 10:02:27;;;;;;;17.52;12.18;;;21.70;99.90;;;;;;5052727;28;20041;-70
2023/06/19 10:04:57;;;;;;;16.60;12.05;;;20.70;99.90;;;;;;5052638;28;20056;-70
2023/06/19 10:07:25;;;;;;;18.45;12.82;;;21.40;99.90;;;;;;5053258;28;20111;-70
2023/06/19 10:10:08;;;;;;;22.40;13.90;;;20.50;99.90;;;;;;5052147;28;20500;-70
2023/06/19 10:12:41;;;;;;;16.75;12.40;;;20.40;99.90;;;;;;5051934;28;20093;-69
2023/06/19 10:15:17;;;;;;;20.75;13.35;;;20.30;99.90;;;;;;5052149;28;20037;-69
2023/06/19 10:17:50;;;;;;;18.13;11.52;;;20.30;99.90;;;;;;5051444;28;20511;-70
2023/06/19 10:20:23;;;;;;;16.48;13.02;;;20.80;99.90;;;;;;5051798;28;20045;-70
2023/06/19 10:23:07;;;;;;;;;;;20.90;99.90;;;;;;5036021;28;20041;-70
2023/06/19 10:25:36;;;;;;;20.70;14.57;;;20.90;99.90;;;;;;5052024;28;19999;-70
2023/06/19 10:28:05;;;;;;;18.70;14.05;;;21.20;99.90;;;;;;5052852;28;20041;-70
2023/06/19 10:30:31;;;;;;;20.15;14.50;;;21.60;99.90;;;;;;5034922;28;20247;-70
2023/06/19 10:32:57;;;;;;;22.75;15.98;;;21.90;99.90;;;;;;5051731;28;20049;-68
2023/06/19 10:35:24;;;;;;;24.05;13.35;;;21.70;99.90;;;;;;5051535;28;20390;-70
2023/06/19 10:37:50;;;;;;;16.45;13.50;;;22.50;99.90;;;;;;5051415;28;20115;-70
2023/06/19 10:40:16;;;;;;;17.95;12.85;;;22.00;99.90;;;;;;5052934;28;20128;-70
2023/06/19 10:42:43;;;;;;;25.90;16.23;;;21.70;99.90;;;;;;5055312;28;20032;-70
2023/06/19 10:45:16;;;;;;;19.15;14.45;;;21.60;99.90;;;;;;5055028;28;20036;-70
2023/06/19 10:47:42;;;;;;;;;;;21.40;99.90;;;;;;5053639;28;20052;-69
2023/06/19 10:50:12;;;;;;;21.23;14.02;;;21.60;99.90;;;;;;5052339;28;20151;-70
2023/06/19 10:52:43;;;;;;;18.05;13.27;;;21.80;99.90;;;;;;5052004;28;20041;-69
2023/06/19 10:55:09;;;;;;;20.30;15.32;;;22.00;99.90;;;;;;5051708;28;20041;-70
2023/06/19 10:57:36;;;;;;;15.90;13.35;;;22.10;99.90;;;;;;5051417;28;20174;-70
2023/06/19 11:00:06;;;;;;;20.45;13.93;;;22.60;99.90;;;;;;5051292;28;20041;-70
2023/06/19 11:02:32;;;;;;;17.77;13.07;;;21.90;99.90;;;;;;5052022;28;20429;-70
2023/06/19 11:04:57;;;;;;;20.63;12.80;;;22.10;99.90;;;;;;5051464;28;20033;-71
2023/06/19 11:07:23;;;;;;;16.48;13.35;;;23.00;99.90;;;;;;5034239;28;20045;-70
2023/06/19 11:09:49;;;;;;;17.38;13.18;;;22.50;99.90;;;;;;5050918;28;20060;-70
2023/06/19 11:12:21;;;;;;;17.73;13.55;;;22.30;99.90;;;;;;5052530;28;20049;-70
2023/06/19 11:14:49;;;;;;;21.35;13.77;;;22.10;99.90;;;;;;5051216;28;20457;-70
2023/06/19 11:17:15;;;;;;;19.35;12.68;;;21.90;99.90;;;;;;5050474;28;20051;-70
2023/06/19 11:19:43;;;;;;;22.73;15.35;;;22.20;99.90;;;;;;5050707;28;20087;-71
2023/06/19 11:22:09;;;;;;;21.42;15.90;;;22.40;99.90;;;;;;5034481;28;20072;-70
2023/06/19 11:24:35;;;;;;;22.23;16.30;;;22.70;99.90;;;;;;5050913;28;20072;-70
2023/06/19 11:27:00;;;;;;;34.05;17.27;;;22.60;99.90;;;;;;5051692;28;20037;-70
2023/06/19 11:29:29;;;;;;;24.48;16.88;;;22.00;99.90;;;;;;5034022;28;20407;-71
2023/06/19 11:32:07;;;;;;;22.48;16.17;;;22.40;99.90;;;;;;5050982;28;20052;-70
2023/06/19 11:34:36;;;;;;;28.02;18.20;;;21.80;99.90;;;;;;5033638;28;20075;-70
2023/06/19 11:37:05;;;;;;;24.67;18.25;;;22.10;99.90;;;;;;5050294;28;20072;-70
2023/06/19 11:39:31;;;;;;;23.35;15.95;;;21.90;99.90;;;;;;5050560;28;20029;-70
2023/06/19 11:41:59;;;;;;;19.08;15.23;;;22.00;99.90;;;;;;5050683;28;20110;-71
2023/06/19 11:44:24;;;;;;;20.60;15.48;;;22.30;99.90;;;;;;5033966;28;20508;-70
2023/06/19 11:46:50;;;;;;;19.50;14.70;;;22.50;99.90;;;;;;5050279;28;20045;-70
2023/06/19 11:49:17;;;;;;;17.90;14.63;;;22.90;99.90;;;;;;5050491;28;20044;-71
2023/06/19 11:51:43;;;;;;;23.17;15.40;;;22.50;99.90;;;;;;5051969;28;20130;-71
2023/06/19 11:54:11;;;;;;;18.10;14.38;;;22.60;99.90;;;;;;5050502;28;20084;-70
2023/06/19 11:56:38;;;;;;;17.05;14.00;;;22.90;99.90;;;;;;5050130;28;20447;-70
2023/06/19 11:59:04;;;;;;;17.48;12.48;;;23.00;99.90;;;;;;5050779;28;20118;-70
2023/06/19 12:01:34;;;;;;;17.27;12.38;;;23.00;99.90;;;;;;5051273;28;20052;-70
2023/06/19 12:04:00;;;;;;;15.90;12.70;;;23.10;99.90;;;;;;5050720;28;20260;-70
2023/06/19 12:06:26;;;;;;;15.40;12.38;;;23.00;99.90;;;;;;5050033;28;20072;-70
2023/06/19 12:08:52;;;;;;;15.13;11.80;;;22.90;99.90;;;;;;5050353;28;20041;-71
2023/06/19 12:11:18;;;;;;;16.63;11.88;;;23.10;99.90;;;;;;5050459;28;20040;-70
2023/06/19 12:13:43;;;;;;;18.42;11.80;;;23.20;99.90;;;;;;5050312;28;20041;-70
2023/06/19 12:16:13;;;;;;;16.35;11.13;;;23.20;99.90;;;;;;5049762;28;20459;-70
2023/06/19 12:18:39;;;;;;;15.10;10.40;;;23.40;99.90;;;;;;5050598;28;20040;-71
2023/06/19 12:21:04;;;;;;;14.13;9.52;;;23.70;99.90;;;;;;5033888;28;20041;-70
2023/06/19 12:23:30;;;;;;;11.40;9.18;;;23.40;99.90;;;;;;5050210;28;20051;-70
2023/06/19 12:25:56;;;;;;;13.95;8.98;;;23.70;99.90;;;;;;5050408;28;20793;-70
2023/06/19 12:28:21;;;;;;;14.52;9.02;;;23.80;99.90;;;;;;5050175;28;20048;-71
2023/06/19 12:30:51;;;;;;;11.65;8.32;;;24.40;99.90;;;;;;5051939;28;20037;-71
2023/06/19 12:33:17;;;;;;;12.00;9.73;;;24.10;99.90;;;;;;5050426;28;20554;-70